sensor_id;sensor_type;location;lat;lon;timestamp;P1;durP1;ratioP1;P2;durP2;ratioP2
81320;SDS011;70785;52.570;5.638;2023-07-09T00:00:45;11.57;;;7.60;;
81320;SDS011;70785;52.570;5.638;2023-07-09T00:03:12;9.50;;;6.07;;
81320;SDS011;70785;52.570;5.638;2023-07-09T00:05:38;9.38;;;5.30;;
81320;SDS011;70785;52.570;5.638;2023-07-09T00:08:05;8.70;;;7.22;;
81320;SDS011;70785;52.570;5.638;2023-07-09T00:10:31;8.57;;;6.38;;
81320;SDS011;70785;52.570;5.638;2023-07-09T00:12:59;9.73;;;6.97;;
81320;SDS011;70785;52.570;5.638;2023-07-09T00:15:25;9.27;;;6.18;;
81320;SDS011;70785;52.570;5.638;2023-07-09T00:17:52;8.93;;;6.45;;
81320;SDS011;70785;52.570;5.638;2023-07-09T00:20:18;11.38;;;6.38;;
81320;SDS011;70785;52.570;5.638;2023-07-09T00:22:45;9.57;;;6.70;;
81320;SDS011;70785;52.570;5.638;2023-07-09T00:25:20;11.18;;;7.30;;
81320;SDS011;70785;52.570;5.638;2023-07-09T00:27:46;11.95;;;8.13;;
81320;SDS011;70785;52.570;5.638;2023-07-09T00:30:15;9.48;;;7.07;;
81320;SDS011;70785;52.570;5.638;2023-07-09T00:32:42;10.82;;;6.53;;
81320;SDS011;70785;52.570;5.638;2023-07-09T00:35:09;9.65;;;6.50;;
81320;SDS011;70785;52.570;5.638;2023-07-09T00:37:38;9.88;;;7.60;;
81320;SDS011;70785;52.570;5.638;2023-07-09T00:40:04;10.15;;;6.15;;
81320;SDS011;70785;52.570;5.638;2023-07-09T00:42:30;10.85;;;6.70;;
81320;SDS011;70785;52.570;5.638;2023-07-09T00:44:57;10.13;;;7.43;;
81320;SDS011;70785;52.570;5.638;2023-07-09T00:50:21;10.82;;;7.45;;
81320;SDS011;70785;52.570;5.638;2023-07-09T00:53:04;10.93;;;7.90;;
81320;SDS011;70785;52.570;5.638;2023-07-09T00:55:38;10.90;;;7.65;;
81320;SDS011;70785;52.570;5.638;2023-07-09T00:58:09;10.20;;;6.97;;
81320;SDS011;70785;52.570;5.638;2023-07-09T01:00:39;9.02;;;5.82;;
81320;SDS011;70785;52.570;5.638;2023-07-09T01:03:18;10.27;;;7.55;;
81320;SDS011;70785;52.570;5.638;2023-07-09T01:05:54;11.05;;;6.85;;
81320;SDS011;70785;52.570;5.638;2023-07-09T01:08:23;10.27;;;6.78;;
81320;SDS011;70785;52.570;5.638;2023-07-09T01:10:49;9.98;;;6.63;;
81320;SDS011;70785;52.570;5.638;2023-07-09T01:13:16;11.90;;;8.43;;
81320;SDS011;70785;52.570;5.638;2023-07-09T01:15:45;9.95;;;7.03;;
81320;SDS011;70785;52.570;5.638;2023-07-09T01:18:12;11.52;;;7.97;;
81320;SDS011;70785;52.570;5.638;2023-07-09T01:20:40;11.95;;;7.90;;
81320;SDS011;70785;52.570;5.638;2023-07-09T01:23:07;10.32;;;6.80;;
81320;SDS011;70785;52.570;5.638;2023-07-09T01:25:34;11.35;;;7.55;;
81320;SDS011;70785;52.570;5.638;2023-07-09T01:28:04;11.80;;;7.82;;
81320;SDS011;70785;52.570;5.638;2023-07-09T01:30:33;10.82;;;7.10;;
81320;SDS011;70785;52.570;5.638;2023-07-09T01:33:03;10.05;;;7.00;;
81320;SDS011;70785;52.570;5.638;2023-07-09T01:35:34;10.90;;;7.90;;
81320;SDS011;70785;52.570;5.638;2023-07-09T01:38:03;13.65;;;7.72;;
81320;SDS011;70785;52.570;5.638;2023-07-09T01:40:34;9.82;;;6.97;;
81320;SDS011;70785;52.570;5.638;2023-07-09T01:43:01;11.98;;;7.18;;
81320;SDS011;70785;52.570;5.638;2023-07-09T01:45:32;10.60;;;7.80;;
81320;SDS011;70785;52.570;5.638;2023-07-09T01:48:01;8.55;;;6.50;;
81320;SDS011;70785;52.570;5.638;2023-07-09T01:50:28;10.00;;;6.70;;
81320;SDS011;70785;52.570;5.638;2023-07-09T01:52:56;10.90;;;7.05;;
81320;SDS011;70785;52.570;5.638;2023-07-09T01:55:23;11.07;;;8.10;;
81320;SDS011;70785;52.570;5.638;2023-07-09T01:57:50;12.02;;;7.90;;
81320;SDS011;70785;52.570;5.638;2023-07-09T02:00:17;12.95;;;8.13;;
81320;SDS011;70785;52.570;5.638;2023-07-09T02:02:47;11.02;;;8.10;;
81320;SDS011;70785;52.570;5.638;2023-07-09T02:05:19;12.02;;;8.43;;
81320;SDS011;70785;52.570;5.638;2023-07-09T02:07:45;9.80;;;6.50;;
81320;SDS011;70785;52.570;5.638;2023-07-09T02:10:13;9.77;;;7.25;;
81320;SDS011;70785;52.570;5.638;2023-07-09T02:12:41;10.52;;;7.68;;
81320;SDS011;70785;52.570;5.638;2023-07-09T02:15:07;13.50;;;9.07;;
81320;SDS011;70785;52.570;5.638;2023-07-09T02:17:34;12.85;;;7.22;;
81320;SDS011;70785;52.570;5.638;2023-07-09T02:20:00;11.43;;;8.45;;
81320;SDS011;70785;52.570;5.638;2023-07-09T02:22:26;10.32;;;8.20;;
81320;SDS011;70785;52.570;5.638;2023-07-09T02:24:53;11.40;;;7.70;;
81320;SDS011;70785;52.570;5.638;2023-07-09T02:27:19;9.52;;;7.93;;
81320;SDS011;70785;52.570;5.638;2023-07-09T02:29:47;10.00;;;6.68;;
81320;SDS011;70785;52.570;5.638;2023-07-09T02:32:17;10.55;;;8.50;;
81320;SDS011;70785;52.570;5.638;2023-07-09T02:34:46;11.55;;;6.97;;
81320;SDS011;70785;52.570;5.638;2023-07-09T02:37:15;9.88;;;6.95;;
81320;SDS011;70785;52.570;5.638;2023-07-09T02:39:44;8.35;;;6.05;;
81320;SDS011;70785;52.570;5.638;2023-07-09T02:42:11;8.25;;;6.50;;
81320;SDS011;70785;52.570;5.638;2023-07-09T02:44:39;9.15;;;6.30;;
81320;SDS011;70785;52.570;5.638;2023-07-09T02:47:06;9.30;;;7.68;;
81320;SDS011;70785;52.570;5.638;2023-07-09T02:49:33;9.88;;;7.22;;
81320;SDS011;70785;52.570;5.638;2023-07-09T02:52:00;11.20;;;7.55;;
81320;SDS011;70785;52.570;5.638;2023-07-09T02:54:26;11.95;;;8.07;;
81320;SDS011;70785;52.570;5.638;2023-07-09T02:56:52;10.75;;;7.38;;
81320;SDS011;70785;52.570;5.638;2023-07-09T02:59:19;10.43;;;7.32;;
81320;SDS011;70785;52.570;5.638;2023-07-09T03:01:45;8.52;;;6.47;;
81320;SDS011;70785;52.570;5.638;2023-07-09T03:04:13;9.45;;;7.45;;
81320;SDS011;70785;52.570;5.638;2023-07-09T03:06:40;12.90;;;6.18;;
81320;SDS011;70785;52.570;5.638;2023-07-09T03:09:06;11.32;;;6.85;;
81320;SDS011;70785;52.570;5.638;2023-07-09T03:11:33;8.10;;;5.63;;
81320;SDS011;70785;52.570;5.638;2023-07-09T03:14:01;11.30;;;6.35;;
81320;SDS011;70785;52.570;5.638;2023-07-09T03:16:28;9.07;;;6.53;;
81320;SDS011;70785;52.570;5.638;2023-07-09T03:18:55;11.75;;;6.03;;
81320;SDS011;70785;52.570;5.638;2023-07-09T03:21:22;7.53;;;4.88;;
81320;SDS011;70785;52.570;5.638;2023-07-09T03:23:50;8.23;;;6.45;;
81320;SDS011;70785;52.570;5.638;2023-07-09T03:26:16;9.70;;;6.65;;
81320;SDS011;70785;52.570;5.638;2023-07-09T03:28:43;8.98;;;6.05;;
81320;SDS011;70785;52.570;5.638;2023-07-09T03:31:09;9.05;;;6.88;;
81320;SDS011;70785;52.570;5.638;2023-07-09T03:33:35;9.15;;;6.25;;
81320;SDS011;70785;52.570;5.638;2023-07-09T03:36:02;8.02;;;6.72;;
81320;SDS011;70785;52.570;5.638;2023-07-09T03:38:29;7.68;;;5.43;;
81320;SDS011;70785;52.570;5.638;2023-07-09T03:40:56;10.48;;;7.60;;
81320;SDS011;70785;52.570;5.638;2023-07-09T03:43:22;8.75;;;6.50;;
81320;SDS011;70785;52.570;5.638;2023-07-09T03:45:49;10.98;;;6.05;;
81320;SDS011;70785;52.570;5.638;2023-07-09T03:48:16;9.90;;;6.97;;
81320;SDS011;70785;52.570;5.638;2023-07-09T03:50:44;9.90;;;6.25;;
81320;SDS011;70785;52.570;5.638;2023-07-09T03:53:11;8.00;;;6.38;;
81320;SDS011;70785;52.570;5.638;2023-07-09T03:55:38;12.02;;;6.38;;
81320;SDS011;70785;52.570;5.638;2023-07-09T03:58:04;11.52;;;7.88;;
81320;SDS011;70785;52.570;5.638;2023-07-09T04:00:31;9.38;;;7.22;;
81320;SDS011;70785;52.570;5.638;2023-07-09T04:02:58;11.05;;;7.15;;
81320;SDS011;70785;52.570;5.638;2023-07-09T04:05:24;11.60;;;8.07;;
81320;SDS011;70785;52.570;5.638;2023-07-09T04:07:51;10.13;;;6.95;;
81320;SDS011;70785;52.570;5.638;2023-07-09T04:10:17;10.25;;;7.07;;
81320;SDS011;70785;52.570;5.638;2023-07-09T04:12:44;12.55;;;7.38;;
81320;SDS011;70785;52.570;5.638;2023-07-09T04:15:11;11.25;;;8.43;;
81320;SDS011;70785;52.570;5.638;2023-07-09T04:17:38;9.65;;;8.20;;
81320;SDS011;70785;52.570;5.638;2023-07-09T04:20:05;8.57;;;7.75;;
81320;SDS011;70785;52.570;5.638;2023-07-09T04:22:33;11.13;;;8.38;;
81320;SDS011;70785;52.570;5.638;2023-07-09T04:25:01;11.65;;;7.78;;
81320;SDS011;70785;52.570;5.638;2023-07-09T04:27:29;13.32;;;7.72;;
81320;SDS011;70785;52.570;5.638;2023-07-09T04:29:56;12.80;;;8.35;;
81320;SDS011;70785;52.570;5.638;2023-07-09T04:32:22;12.55;;;9.00;;
81320;SDS011;70785;52.570;5.638;2023-07-09T04:34:48;12.15;;;9.00;;
81320;SDS011;70785;52.570;5.638;2023-07-09T04:37:15;11.13;;;9.20;;
81320;SDS011;70785;52.570;5.638;2023-07-09T04:39:42;13.35;;;8.45;;
81320;SDS011;70785;52.570;5.638;2023-07-09T04:42:12;10.85;;;9.70;;
81320;SDS011;70785;52.570;5.638;2023-07-09T04:44:40;13.48;;;9.02;;
81320;SDS011;70785;52.570;5.638;2023-07-09T04:47:06;12.07;;;8.75;;
81320;SDS011;70785;52.570;5.638;2023-07-09T04:49:33;12.75;;;8.65;;
81320;SDS011;70785;52.570;5.638;2023-07-09T04:51:59;13.23;;;8.35;;
81320;SDS011;70785;52.570;5.638;2023-07-09T04:54:26;13.27;;;8.73;;
81320;SDS011;70785;52.570;5.638;2023-07-09T04:56:53;14.50;;;9.10;;
81320;SDS011;70785;52.570;5.638;2023-07-09T04:59:19;13.85;;;9.93;;
81320;SDS011;70785;52.570;5.638;2023-07-09T05:01:45;15.45;;;9.57;;
81320;SDS011;70785;52.570;5.638;2023-07-09T05:04:12;16.50;;;8.60;;
81320;SDS011;70785;52.570;5.638;2023-07-09T05:06:38;12.80;;;9.20;;
81320;SDS011;70785;52.570;5.638;2023-07-09T05:09:05;11.32;;;7.63;;
81320;SDS011;70785;52.570;5.638;2023-07-09T05:11:33;10.95;;;8.55;;
81320;SDS011;70785;52.570;5.638;2023-07-09T05:14:00;11.45;;;8.15;;
81320;SDS011;70785;52.570;5.638;2023-07-09T05:16:26;12.50;;;9.10;;
81320;SDS011;70785;52.570;5.638;2023-07-09T05:18:52;11.85;;;7.70;;
81320;SDS011;70785;52.570;5.638;2023-07-09T05:21:18;12.55;;;9.40;;
81320;SDS011;70785;52.570;5.638;2023-07-09T05:23:44;12.98;;;9.48;;
81320;SDS011;70785;52.570;5.638;2023-07-09T05:26:10;11.52;;;8.40;;
81320;SDS011;70785;52.570;5.638;2023-07-09T05:28:37;12.25;;;8.77;;
81320;SDS011;70785;52.570;5.638;2023-07-09T05:31:04;10.50;;;8.15;;
81320;SDS011;70785;52.570;5.638;2023-07-09T05:33:30;13.27;;;9.25;;
81320;SDS011;70785;52.570;5.638;2023-07-09T05:35:57;11.80;;;8.57;;
81320;SDS011;70785;52.570;5.638;2023-07-09T05:38:23;11.77;;;8.73;;
81320;SDS011;70785;52.570;5.638;2023-07-09T05:40:58;12.95;;;9.27;;
81320;SDS011;70785;52.570;5.638;2023-07-09T05:43:28;15.90;;;9.38;;
81320;SDS011;70785;52.570;5.638;2023-07-09T05:45:54;12.73;;;9.05;;
81320;SDS011;70785;52.570;5.638;2023-07-09T05:48:20;13.82;;;9.45;;
81320;SDS011;70785;52.570;5.638;2023-07-09T05:50:47;14.77;;;10.00;;
81320;SDS011;70785;52.570;5.638;2023-07-09T05:53:14;14.10;;;10.50;;
81320;SDS011;70785;52.570;5.638;2023-07-09T05:55:40;11.27;;;8.45;;
81320;SDS011;70785;52.570;5.638;2023-07-09T05:58:07;14.25;;;10.07;;
81320;SDS011;70785;52.570;5.638;2023-07-09T06:00:33;16.08;;;9.13;;
81320;SDS011;70785;52.570;5.638;2023-07-09T06:02:59;14.57;;;10.23;;
81320;SDS011;70785;52.570;5.638;2023-07-09T06:05:27;15.25;;;9.38;;
81320;SDS011;70785;52.570;5.638;2023-07-09T06:07:55;12.32;;;9.55;;
81320;SDS011;70785;52.570;5.638;2023-07-09T06:10:21;12.55;;;8.90;;
81320;SDS011;70785;52.570;5.638;2023-07-09T06:12:47;13.98;;;9.70;;
81320;SDS011;70785;52.570;5.638;2023-07-09T06:15:14;13.10;;;10.07;;
81320;SDS011;70785;52.570;5.638;2023-07-09T06:17:40;14.38;;;9.00;;
81320;SDS011;70785;52.570;5.638;2023-07-09T06:20:07;14.68;;;10.10;;
81320;SDS011;70785;52.570;5.638;2023-07-09T06:22:34;13.23;;;10.02;;
81320;SDS011;70785;52.570;5.638;2023-07-09T06:25:00;15.68;;;9.98;;
81320;SDS011;70785;52.570;5.638;2023-07-09T06:27:26;13.55;;;9.02;;
81320;SDS011;70785;52.570;5.638;2023-07-09T06:29:52;15.25;;;11.50;;
81320;SDS011;70785;52.570;5.638;2023-07-09T06:32:18;13.75;;;9.68;;
81320;SDS011;70785;52.570;5.638;2023-07-09T06:34:44;11.02;;;8.63;;
81320;SDS011;70785;52.570;5.638;2023-07-09T06:37:11;14.60;;;9.93;;
81320;SDS011;70785;52.570;5.638;2023-07-09T06:39:37;13.35;;;9.73;;
81320;SDS011;70785;52.570;5.638;2023-07-09T06:42:03;12.65;;;10.20;;
81320;SDS011;70785;52.570;5.638;2023-07-09T06:44:48;11.43;;;8.60;;
81320;SDS011;70785;52.570;5.638;2023-07-09T06:47:14;10.70;;;6.43;;
81320;SDS011;70785;52.570;5.638;2023-07-09T06:49:40;10.70;;;8.90;;
81320;SDS011;70785;52.570;5.638;2023-07-09T06:52:07;9.52;;;6.53;;
81320;SDS011;70785;52.570;5.638;2023-07-09T06:54:33;12.02;;;7.80;;
81320;SDS011;70785;52.570;5.638;2023-07-09T06:56:59;10.52;;;7.60;;
81320;SDS011;70785;52.570;5.638;2023-07-09T06:59:25;11.23;;;8.88;;
81320;SDS011;70785;52.570;5.638;2023-07-09T07:01:51;12.45;;;8.50;;
81320;SDS011;70785;52.570;5.638;2023-07-09T07:04:17;10.23;;;8.90;;
81320;SDS011;70785;52.570;5.638;2023-07-09T07:06:44;13.07;;;9.75;;
81320;SDS011;70785;52.570;5.638;2023-07-09T07:09:10;16.40;;;9.13;;
81320;SDS011;70785;52.570;5.638;2023-07-09T07:11:36;12.82;;;11.13;;
81320;SDS011;70785;52.570;5.638;2023-07-09T07:14:02;12.63;;;8.88;;
81320;SDS011;70785;52.570;5.638;2023-07-09T07:16:28;13.95;;;10.35;;
81320;SDS011;70785;52.570;5.638;2023-07-09T07:18:54;13.13;;;10.55;;
81320;SDS011;70785;52.570;5.638;2023-07-09T07:21:20;14.43;;;9.45;;
81320;SDS011;70785;52.570;5.638;2023-07-09T07:23:46;14.98;;;9.93;;
81320;SDS011;70785;52.570;5.638;2023-07-09T07:26:13;14.98;;;11.40;;
81320;SDS011;70785;52.570;5.638;2023-07-09T07:28:39;14.10;;;11.63;;
81320;SDS011;70785;52.570;5.638;2023-07-09T07:31:06;15.57;;;12.15;;
81320;SDS011;70785;52.570;5.638;2023-07-09T07:33:33;16.23;;;12.40;;
81320;SDS011;70785;52.570;5.638;2023-07-09T07:36:00;17.05;;;12.45;;
81320;SDS011;70785;52.570;5.638;2023-07-09T07:38:26;17.70;;;11.75;;
81320;SDS011;70785;52.570;5.638;2023-07-09T07:40:53;17.52;;;12.55;;
81320;SDS011;70785;52.570;5.638;2023-07-09T07:43:19;14.73;;;12.70;;
81320;SDS011;70785;52.570;5.638;2023-07-09T07:45:45;15.95;;;14.25;;
81320;SDS011;70785;52.570;5.638;2023-07-09T07:48:13;15.75;;;12.02;;
81320;SDS011;70785;52.570;5.638;2023-07-09T07:50:39;18.98;;;14.73;;
81320;SDS011;70785;52.570;5.638;2023-07-09T07:53:06;21.42;;;16.70;;
81320;SDS011;70785;52.570;5.638;2023-07-09T07:55:34;21.77;;;17.48;;
81320;SDS011;70785;52.570;5.638;2023-07-09T07:58:02;21.27;;;15.95;;
81320;SDS011;70785;52.570;5.638;2023-07-09T08:00:29;22.20;;;16.80;;
81320;SDS011;70785;52.570;5.638;2023-07-09T08:02:56;25.52;;;19.13;;
81320;SDS011;70785;52.570;5.638;2023-07-09T08:05:22;27.13;;;22.40;;
81320;SDS011;70785;52.570;5.638;2023-07-09T08:07:49;21.30;;;18.02;;
81320;SDS011;70785;52.570;5.638;2023-07-09T08:10:15;25.70;;;17.40;;
81320;SDS011;70785;52.570;5.638;2023-07-09T08:12:41;22.60;;;19.40;;
81320;SDS011;70785;52.570;5.638;2023-07-09T08:15:08;23.17;;;18.10;;
81320;SDS011;70785;52.570;5.638;2023-07-09T08:17:34;23.15;;;16.17;;
81320;SDS011;70785;52.570;5.638;2023-07-09T08:20:00;21.23;;;18.70;;
81320;SDS011;70785;52.570;5.638;2023-07-09T08:22:26;22.25;;;17.25;;
81320;SDS011;70785;52.570;5.638;2023-07-09T08:24:52;23.60;;;17.60;;
81320;SDS011;70785;52.570;5.638;2023-07-09T08:27:18;17.63;;;12.85;;
81320;SDS011;70785;52.570;5.638;2023-07-09T08:29:45;19.88;;;13.73;;
81320;SDS011;70785;52.570;5.638;2023-07-09T08:32:12;17.48;;;13.27;;
81320;SDS011;70785;52.570;5.638;2023-07-09T08:34:39;20.52;;;17.45;;
81320;SDS011;70785;52.570;5.638;2023-07-09T08:37:06;17.02;;;12.93;;
81320;SDS011;70785;52.570;5.638;2023-07-09T08:39:33;19.58;;;14.18;;
81320;SDS011;70785;52.570;5.638;2023-07-09T08:42:04;17.08;;;12.55;;
81320;SDS011;70785;52.570;5.638;2023-07-09T08:50:13;17.95;;;12.25;;
81320;SDS011;70785;52.570;5.638;2023-07-09T08:52:43;13.32;;;10.13;;
81320;SDS011;70785;52.570;5.638;2023-07-09T08:55:20;15.32;;;11.93;;
81320;SDS011;70785;52.570;5.638;2023-07-09T08:57:52;16.00;;;10.80;;
81320;SDS011;70785;52.570;5.638;2023-07-09T09:02:59;17.77;;;10.77;;
81320;SDS011;70785;52.570;5.638;2023-07-09T09:05:26;15.40;;;10.13;;
81320;SDS011;70785;52.570;5.638;2023-07-09T09:07:57;15.70;;;10.15;;
81320;SDS011;70785;52.570;5.638;2023-07-09T09:15:40;12.48;;;10.43;;
81320;SDS011;70785;52.570;5.638;2023-07-09T09:20:41;12.18;;;9.07;;
81320;SDS011;70785;52.570;5.638;2023-07-09T09:25:33;13.85;;;9.38;;
81320;SDS011;70785;52.570;5.638;2023-07-09T09:28:03;12.02;;;8.88;;
81320;SDS011;70785;52.570;5.638;2023-07-09T09:30:29;9.55;;;7.93;;
81320;SDS011;70785;52.570;5.638;2023-07-09T09:33:00;15.07;;;10.07;;
81320;SDS011;70785;52.570;5.638;2023-07-09T09:35:29;11.43;;;8.75;;
81320;SDS011;70785;52.570;5.638;2023-07-09T09:37:58;11.02;;;9.13;;
81320;SDS011;70785;52.570;5.638;2023-07-09T09:40:25;11.70;;;7.80;;
81320;SDS011;70785;52.570;5.638;2023-07-09T09:42:53;11.68;;;7.68;;
81320;SDS011;70785;52.570;5.638;2023-07-09T09:45:24;14.00;;;8.77;;
81320;SDS011;70785;52.570;5.638;2023-07-09T09:47:53;12.80;;;8.13;;
81320;SDS011;70785;52.570;5.638;2023-07-09T09:50:24;11.27;;;8.38;;
81320;SDS011;70785;52.570;5.638;2023-07-09T09:52:52;12.57;;;9.75;;
81320;SDS011;70785;52.570;5.638;2023-07-09T09:55:20;11.70;;;9.32;;
81320;SDS011;70785;52.570;5.638;2023-07-09T09:57:51;13.88;;;9.63;;
81320;SDS011;70785;52.570;5.638;2023-07-09T10:00:19;15.02;;;10.38;;
81320;SDS011;70785;52.570;5.638;2023-07-09T10:02:50;11.45;;;9.00;;
81320;SDS011;70785;52.570;5.638;2023-07-09T10:05:26;13.35;;;10.20;;
81320;SDS011;70785;52.570;5.638;2023-07-09T10:10:44;11.18;;;9.23;;
81320;SDS011;70785;52.570;5.638;2023-07-09T10:13:30;14.48;;;10.23;;
81320;SDS011;70785;52.570;5.638;2023-07-09T10:21:23;14.60;;;10.75;;
81320;SDS011;70785;52.570;5.638;2023-07-09T10:24:03;13.90;;;9.93;;
81320;SDS011;70785;52.570;5.638;2023-07-09T10:27:22;13.38;;;11.55;;
81320;SDS011;70785;52.570;5.638;2023-07-09T10:34:53;13.80;;;11.27;;
81320;SDS011;70785;52.570;5.638;2023-07-09T10:37:35;16.60;;;10.38;;
81320;SDS011;70785;52.570;5.638;2023-07-09T10:40:12;11.50;;;9.18;;
81320;SDS011;70785;52.570;5.638;2023-07-09T10:45:11;11.38;;;8.90;;
81320;SDS011;70785;52.570;5.638;2023-07-09T10:47:41;15.05;;;7.85;;
81320;SDS011;70785;52.570;5.638;2023-07-09T10:50:12;10.90;;;7.70;;
81320;SDS011;70785;52.570;5.638;2023-07-09T10:52:45;10.93;;;7.78;;
81320;SDS011;70785;52.570;5.638;2023-07-09T10:55:18;11.27;;;7.50;;
81320;SDS011;70785;52.570;5.638;2023-07-09T11:00:22;12.15;;;9.95;;
81320;SDS011;70785;52.570;5.638;2023-07-09T11:03:00;12.95;;;10.32;;
81320;SDS011;70785;52.570;5.638;2023-07-09T11:05:31;14.68;;;10.75;;
81320;SDS011;70785;52.570;5.638;2023-07-09T11:08:06;15.32;;;13.73;;
81320;SDS011;70785;52.570;5.638;2023-07-09T11:10:39;17.33;;;13.55;;
81320;SDS011;70785;52.570;5.638;2023-07-09T11:13:13;16.95;;;14.88;;
81320;SDS011;70785;52.570;5.638;2023-07-09T11:15:49;18.25;;;14.60;;
81320;SDS011;70785;52.570;5.638;2023-07-09T11:18:20;21.60;;;16.73;;
81320;SDS011;70785;52.570;5.638;2023-07-09T11:20:55;17.38;;;15.07;;
81320;SDS011;70785;52.570;5.638;2023-07-09T11:23:43;18.13;;;15.85;;
81320;SDS011;70785;52.570;5.638;2023-07-09T11:26:13;19.52;;;16.17;;
81320;SDS011;70785;52.570;5.638;2023-07-09T11:28:54;18.95;;;15.18;;
81320;SDS011;70785;52.570;5.638;2023-07-09T11:31:36;16.63;;;13.57;;
81320;SDS011;70785;52.570;5.638;2023-07-09T11:39:29;14.32;;;10.00;;
81320;SDS011;70785;52.570;5.638;2023-07-09T11:42:26;13.00;;;10.85;;
81320;SDS011;70785;52.570;5.638;2023-07-09T11:44:58;12.23;;;9.05;;
81320;SDS011;70785;52.570;5.638;2023-07-09T11:47:38;13.00;;;10.48;;
81320;SDS011;70785;52.570;5.638;2023-07-09T11:50:13;12.30;;;10.65;;
81320;SDS011;70785;52.570;5.638;2023-07-09T11:55:41;11.30;;;9.77;;
81320;SDS011;70785;52.570;5.638;2023-07-09T11:58:10;13.52;;;9.40;;
81320;SDS011;70785;52.570;5.638;2023-07-09T12:00:39;10.43;;;7.93;;
81320;SDS011;70785;52.570;5.638;2023-07-09T12:03:06;12.93;;;8.60;;
81320;SDS011;70785;52.570;5.638;2023-07-09T12:05:36;11.82;;;8.02;;
81320;SDS011;70785;52.570;5.638;2023-07-09T12:08:05;11.55;;;9.07;;
81320;SDS011;70785;52.570;5.638;2023-07-09T12:10:33;11.85;;;9.02;;
81320;SDS011;70785;52.570;5.638;2023-07-09T12:13:01;10.88;;;9.30;;
81320;SDS011;70785;52.570;5.638;2023-07-09T12:15:29;10.85;;;9.00;;
81320;SDS011;70785;52.570;5.638;2023-07-09T12:20:25;11.68;;;8.77;;
81320;SDS011;70785;52.570;5.638;2023-07-09T12:22:56;11.85;;;10.57;;
81320;SDS011;70785;52.570;5.638;2023-07-09T12:25:23;15.45;;;8.40;;
81320;SDS011;70785;52.570;5.638;2023-07-09T12:27:52;8.52;;;7.65;;
81320;SDS011;70785;52.570;5.638;2023-07-09T12:30:19;10.68;;;8.18;;
81320;SDS011;70785;52.570;5.638;2023-07-09T12:32:46;11.85;;;7.68;;
81320;SDS011;70785;52.570;5.638;2023-07-09T12:37:43;8.48;;;6.55;;
81320;SDS011;70785;52.570;5.638;2023-07-09T12:40:12;8.02;;;6.47;;
81320;SDS011;70785;52.570;5.638;2023-07-09T12:42:42;8.07;;;6.20;;
81320;SDS011;70785;52.570;5.638;2023-07-09T12:45:18;11.23;;;7.28;;
81320;SDS011;70785;52.570;5.638;2023-07-09T12:47:46;11.95;;;6.47;;
81320;SDS011;70785;52.570;5.638;2023-07-09T12:50:19;6.50;;;5.45;;
81320;SDS011;70785;52.570;5.638;2023-07-09T12:52:47;8.93;;;6.32;;
81320;SDS011;70785;52.570;5.638;2023-07-09T12:55:21;7.70;;;6.95;;
81320;SDS011;70785;52.570;5.638;2023-07-09T12:57:48;8.65;;;7.00;;
81320;SDS011;70785;52.570;5.638;2023-07-09T13:00:16;10.82;;;6.57;;
81320;SDS011;70785;52.570;5.638;2023-07-09T13:02:43;9.43;;;5.65;;
81320;SDS011;70785;52.570;5.638;2023-07-09T13:05:19;11.57;;;6.78;;
81320;SDS011;70785;52.570;5.638;2023-07-09T13:07:49;7.70;;;6.13;;
81320;SDS011;70785;52.570;5.638;2023-07-09T13:10:18;7.50;;;5.30;;
81320;SDS011;70785;52.570;5.638;2023-07-09T13:12:49;6.65;;;4.25;;
81320;SDS011;70785;52.570;5.638;2023-07-09T13:15:38;6.45;;;4.38;;
81320;SDS011;70785;52.570;5.638;2023-07-09T13:18:10;7.35;;;4.57;;
81320;SDS011;70785;52.570;5.638;2023-07-09T13:20:39;8.35;;;4.90;;
81320;SDS011;70785;52.570;5.638;2023-07-09T13:25:41;5.55;;;4.18;;
81320;SDS011;70785;52.570;5.638;2023-07-09T13:28:21;5.88;;;3.92;;
81320;SDS011;70785;52.570;5.638;2023-07-09T13:30:48;5.13;;;3.00;;
81320;SDS011;70785;52.570;5.638;2023-07-09T13:33:16;6.13;;;3.65;;
81320;SDS011;70785;52.570;5.638;2023-07-09T13:35:43;5.60;;;3.28;;
81320;SDS011;70785;52.570;5.638;2023-07-09T13:38:12;5.25;;;3.42;;
81320;SDS011;70785;52.570;5.638;2023-07-09T13:40:46;5.05;;;3.22;;
81320;SDS011;70785;52.570;5.638;2023-07-09T13:43:14;4.60;;;2.92;;
81320;SDS011;70785;52.570;5.638;2023-07-09T13:45:44;4.00;;;2.97;;
81320;SDS011;70785;52.570;5.638;2023-07-09T13:48:15;3.22;;;2.13;;
81320;SDS011;70785;52.570;5.638;2023-07-09T13:50:43;8.05;;;3.40;;
81320;SDS011;70785;52.570;5.638;2023-07-09T13:53:15;5.80;;;3.00;;
81320;SDS011;70785;52.570;5.638;2023-07-09T13:55:43;3.70;;;2.50;;
81320;SDS011;70785;52.570;5.638;2023-07-09T13:58:14;4.85;;;2.47;;
81320;SDS011;70785;52.570;5.638;2023-07-09T14:00:42;4.15;;;1.98;;
81320;SDS011;70785;52.570;5.638;2023-07-09T14:03:21;5.45;;;3.08;;
81320;SDS011;70785;52.570;5.638;2023-07-09T14:05:51;4.25;;;2.78;;
81320;SDS011;70785;52.570;5.638;2023-07-09T14:08:18;4.47;;;2.85;;
81320;SDS011;70785;52.570;5.638;2023-07-09T14:10:47;3.33;;;2.65;;
81320;SDS011;70785;52.570;5.638;2023-07-09T14:13:19;4.22;;;2.53;;
81320;SDS011;70785;52.570;5.638;2023-07-09T14:15:48;3.30;;;2.25;;
81320;SDS011;70785;52.570;5.638;2023-07-09T14:18:16;4.65;;;2.33;;
81320;SDS011;70785;52.570;5.638;2023-07-09T14:20:45;6.35;;;2.63;;
81320;SDS011;70785;52.570;5.638;2023-07-09T14:23:13;3.67;;;2.13;;
81320;SDS011;70785;52.570;5.638;2023-07-09T14:25:40;5.20;;;2.60;;
81320;SDS011;70785;52.570;5.638;2023-07-09T14:28:18;7.90;;;3.55;;
81320;SDS011;70785;52.570;5.638;2023-07-09T14:30:46;7.28;;;3.47;;
81320;SDS011;70785;52.570;5.638;2023-07-09T14:33:15;5.90;;;2.85;;
81320;SDS011;70785;52.570;5.638;2023-07-09T14:35:43;11.73;;;3.35;;
81320;SDS011;70785;52.570;5.638;2023-07-09T14:40:58;9.20;;;3.08;;
81320;SDS011;70785;52.570;5.638;2023-07-09T14:43:29;10.25;;;3.33;;
81320;SDS011;70785;52.570;5.638;2023-07-09T14:45:55;7.18;;;3.85;;
81320;SDS011;70785;52.570;5.638;2023-07-09T14:48:21;6.85;;;3.00;;
81320;SDS011;70785;52.570;5.638;2023-07-09T14:50:48;9.18;;;3.45;;
81320;SDS011;70785;52.570;5.638;2023-07-09T14:53:22;9.25;;;4.10;;
81320;SDS011;70785;52.570;5.638;2023-07-09T14:55:54;10.68;;;5.03;;
81320;SDS011;70785;52.570;5.638;2023-07-09T14:58:22;9.10;;;3.75;;
81320;SDS011;70785;52.570;5.638;2023-07-09T15:00:49;9.65;;;4.15;;
81320;SDS011;70785;52.570;5.638;2023-07-09T15:03:23;11.10;;;5.70;;
81320;SDS011;70785;52.570;5.638;2023-07-09T15:05:51;11.52;;;5.03;;
81320;SDS011;70785;52.570;5.638;2023-07-09T15:08:19;13.32;;;6.90;;
81320;SDS011;70785;52.570;5.638;2023-07-09T15:10:53;16.45;;;10.10;;
81320;SDS011;70785;52.570;5.638;2023-07-09T15:13:30;16.55;;;9.23;;
81320;SDS011;70785;52.570;5.638;2023-07-09T15:16:00;20.00;;;10.32;;
81320;SDS011;70785;52.570;5.638;2023-07-09T15:18:27;14.88;;;9.05;;
81320;SDS011;70785;52.570;5.638;2023-07-09T15:20:57;14.93;;;9.38;;
81320;SDS011;70785;52.570;5.638;2023-07-09T15:23:26;14.43;;;10.65;;
81320;SDS011;70785;52.570;5.638;2023-07-09T15:25:54;16.92;;;9.02;;
81320;SDS011;70785;52.570;5.638;2023-07-09T15:28:20;17.33;;;8.60;;
81320;SDS011;70785;52.570;5.638;2023-07-09T15:30:46;15.07;;;8.65;;
81320;SDS011;70785;52.570;5.638;2023-07-09T15:33:13;14.82;;;8.38;;
81320;SDS011;70785;52.570;5.638;2023-07-09T15:35:41;12.18;;;8.65;;
81320;SDS011;70785;52.570;5.638;2023-07-09T15:38:20;13.85;;;7.15;;
81320;SDS011;70785;52.570;5.638;2023-07-09T15:43:18;21.48;;;10.50;;
81320;SDS011;70785;52.570;5.638;2023-07-09T15:45:45;18.40;;;10.30;;